Terminal Aerodrome Forecast
Issued by NWS

Home | Current Version | Previous Version | Text Only | Print | Product List | Glossary Off
Versions: 1 2 3 4 5 6 7 8 9 10 11 12 13 14 15

251
FTUS45 KGGW 210531
TAFSDY
TAF
KSDY 210531Z 2106/2206 33016G24KT P6SM FEW150
     FM211200 31008KT P6SM SKC
     FM211500 VRB04KT P6SM FEW220=

USA.gov is the U.S. government's official web portal to all federal, state and local government web resources and services.